sensor_id;sensor_type;location;lat;lon;timestamp;pressure;altitude;pressure_sealevel;temperature;humidity
59513;BME280;45330;51.634;5.562;2023-02-20T00:01:30;102496.19;;;4.06;100.00
59513;BME280;45330;51.634;5.562;2023-02-20T00:03:56;102514.97;;;4.22;100.00
59513;BME280;45330;51.634;5.562;2023-02-20T00:06:21;102524.59;;;4.26;100.00
59513;BME280;45330;51.634;5.562;2023-02-20T00:08:46;102515.34;;;4.29;100.00
59513;BME280;45330;51.634;5.562;2023-02-20T00:11:12;102499.59;;;4.23;100.00
59513;BME280;45330;51.634;5.562;2023-02-20T00:13:37;102512.22;;;4.37;100.00
59513;BME280;45330;51.634;5.562;2023-02-20T00:16:03;102516.78;;;4.42;100.00
59513;BME280;45330;51.634;5.562;2023-02-20T00:18:28;102511.69;;;4.44;100.00
59513;BME280;45330;51.634;5.562;2023-02-20T00:20:54;102515.06;;;4.43;100.00
59513;BME280;45330;51.634;5.562;2023-02-20T00:23:19;102510.75;;;4.42;100.00
59513;BME280;45330;51.634;5.562;2023-02-20T00:25:45;102492.94;;;4.28;100.00
59513;BME280;45330;51.634;5.562;2023-02-20T00:28:10;102502.97;;;4.40;100.00
59513;BME280;45330;51.634;5.562;2023-02-20T00:30:36;102483.25;;;4.23;100.00
59513;BME280;45330;51.634;5.562;2023-02-20T00:33:01;102483.38;;;4.26;100.00
59513;BME280;45330;51.634;5.562;2023-02-20T00:35:26;102474.09;;;4.29;100.00
59513;BME280;45330;51.634;5.562;2023-02-20T00:37:54;102485.72;;;4.39;100.00
59513;BME280;45330;51.634;5.562;2023-02-20T00:40:21;102466.31;;;4.28;100.00
59513;BME280;45330;51.634;5.562;2023-02-20T00:42:47;102480.50;;;4.38;100.00
59513;BME280;45330;51.634;5.562;2023-02-20T00:45:14;102456.00;;;4.28;100.00
59513;BME280;45330;51.634;5.562;2023-02-20T00:47:40;102458.09;;;4.37;100.00
59513;BME280;45330;51.634;5.562;2023-02-20T00:50:06;102455.47;;;4.35;100.00
59513;BME280;45330;51.634;5.562;2023-02-20T00:52:32;102448.53;;;4.34;100.00
59513;BME280;45330;51.634;5.562;2023-02-20T00:54:57;102440.75;;;4.33;100.00
59513;BME280;45330;51.634;5.562;2023-02-20T00:57:23;102445.88;;;4.33;100.00
59513;BME280;45330;51.634;5.562;2023-02-20T00:59:48;102429.88;;;4.20;100.00
59513;BME280;45330;51.634;5.562;2023-02-20T01:02:14;102454.44;;;4.32;100.00
59513;BME280;45330;51.634;5.562;2023-02-20T01:04:40;102432.44;;;4.20;100.00
59513;BME280;45330;51.634;5.562;2023-02-20T01:07:05;102457.78;;;4.29;100.00
59513;BME280;45330;51.634;5.562;2023-02-20T01:09:31;102430.25;;;4.10;100.00
59513;BME280;45330;51.634;5.562;2023-02-20T01:11:56;102440.44;;;4.07;100.00
59513;BME280;45330;51.634;5.562;2023-02-20T01:14:22;102441.16;;;4.04;100.00
59513;BME280;45330;51.634;5.562;2023-02-20T01:16:49;102455.91;;;4.07;100.00
59513;BME280;45330;51.634;5.562;2023-02-20T01:19:16;102459.13;;;4.03;100.00
59513;BME280;45330;51.634;5.562;2023-02-20T01:21:41;102451.88;;;3.94;100.00
59513;BME280;45330;51.634;5.562;2023-02-20T01:24:07;102457.00;;;3.94;100.00
59513;BME280;45330;51.634;5.562;2023-02-20T01:26:32;102439.19;;;3.81;100.00
59513;BME280;45330;51.634;5.562;2023-02-20T01:28:58;102429.50;;;3.75;100.00
59513;BME280;45330;51.634;5.562;2023-02-20T01:31:23;102448.25;;;3.90;100.00
59513;BME280;45330;51.634;5.562;2023-02-20T01:33:48;102431.41;;;3.79;100.00
59513;BME280;45330;51.634;5.562;2023-02-20T01:36:14;102442.81;;;3.84;100.00
59513;BME280;45330;51.634;5.562;2023-02-20T01:38:40;102438.41;;;3.82;100.00
59513;BME280;45330;51.634;5.562;2023-02-20T01:41:09;102422.03;;;3.81;100.00
59513;BME280;45330;51.634;5.562;2023-02-20T01:43:36;102408.03;;;3.74;100.00
59513;BME280;45330;51.634;5.562;2023-02-20T01:49:09;102412.94;;;3.88;100.00
59513;BME280;45330;51.634;5.562;2023-02-20T01:51:41;102390.22;;;3.79;100.00
59513;BME280;45330;51.634;5.562;2023-02-20T01:54:09;102379.84;;;3.77;100.00
59513;BME280;45330;51.634;5.562;2023-02-20T01:56:35;102371.00;;;3.72;100.00
59513;BME280;45330;51.634;5.562;2023-02-20T01:59:01;102364.13;;;3.71;100.00
59513;BME280;45330;51.634;5.562;2023-02-20T02:01:27;102353.88;;;3.73;100.00
59513;BME280;45330;51.634;5.562;2023-02-20T02:03:59;102347.63;;;3.68;100.00
59513;BME280;45330;51.634;5.562;2023-02-20T02:06:25;102331.16;;;3.64;100.00
59513;BME280;45330;51.634;5.562;2023-02-20T02:08:53;102321.75;;;3.65;100.00
59513;BME280;45330;51.634;5.562;2023-02-20T02:11:22;102324.34;;;3.65;100.00
59513;BME280;45330;51.634;5.562;2023-02-20T02:13:49;102319.13;;;3.63;100.00
59513;BME280;45330;51.634;5.562;2023-02-20T02:16:34;102343.59;;;3.73;100.00
59513;BME280;45330;51.634;5.562;2023-02-20T02:37:48;102342.50;;;3.68;100.00
59513;BME280;45330;51.634;5.562;2023-02-20T02:48:04;102326.78;;;3.81;100.00
59513;BME280;45330;51.634;5.562;2023-02-20T02:50:36;102315.06;;;3.88;100.00
59513;BME280;45330;51.634;5.562;2023-02-20T02:53:04;102300.97;;;3.80;100.00
59513;BME280;45330;51.634;5.562;2023-02-20T02:55:32;102307.34;;;3.88;100.00
59513;BME280;45330;51.634;5.562;2023-02-20T02:58:02;102314.94;;;4.04;100.00
59513;BME280;45330;51.634;5.562;2023-02-20T03:00:38;102289.88;;;4.00;100.00
59513;BME280;45330;51.634;5.562;2023-02-20T03:03:12;102291.78;;;4.04;100.00
59513;BME280;45330;51.634;5.562;2023-02-20T03:06:00;102297.19;;;4.10;100.00
59513;BME280;45330;51.634;5.562;2023-02-20T03:11:24;102311.88;;;4.33;100.00
59513;BME280;45330;51.634;5.562;2023-02-20T03:14:10;102313.03;;;4.39;100.00
59513;BME280;45330;51.634;5.562;2023-02-20T03:17:04;102278.44;;;4.34;100.00
59513;BME280;45330;51.634;5.562;2023-02-20T03:22:08;102295.53;;;4.52;100.00
59513;BME280;45330;51.634;5.562;2023-02-20T03:24:37;102287.84;;;4.53;100.00
59513;BME280;45330;51.634;5.562;2023-02-20T03:27:47;102298.59;;;4.64;100.00
59513;BME280;45330;51.634;5.562;2023-02-20T03:35:50;102285.53;;;4.59;100.00
59513;BME280;45330;51.634;5.562;2023-02-20T03:38:36;102281.16;;;4.58;100.00
59513;BME280;45330;51.634;5.562;2023-02-20T03:41:22;102277.78;;;4.59;100.00
59513;BME280;45330;51.634;5.562;2023-02-20T03:44:09;102261.13;;;4.51;100.00
59513;BME280;45330;51.634;5.562;2023-02-20T03:46:39;102275.22;;;4.59;100.00
59513;BME280;45330;51.634;5.562;2023-02-20T03:49:19;102280.47;;;4.62;100.00
59513;BME280;45330;51.634;5.562;2023-02-20T03:52:04;102273.84;;;4.68;100.00
59513;BME280;45330;51.634;5.562;2023-02-20T03:54:31;102274.84;;;4.71;100.00
59513;BME280;45330;51.634;5.562;2023-02-20T03:57:07;102265.28;;;4.69;100.00
59513;BME280;45330;51.634;5.562;2023-02-20T03:59:44;102263.69;;;4.72;100.00
59513;BME280;45330;51.634;5.562;2023-02-20T04:02:21;102263.75;;;4.74;100.00
59513;BME280;45330;51.634;5.562;2023-02-20T04:04:51;102289.31;;;4.89;100.00
59513;BME280;45330;51.634;5.562;2023-02-20T04:07:24;102278.22;;;4.91;100.00
59513;BME280;45330;51.634;5.562;2023-02-20T04:09:50;102262.50;;;4.85;100.00
59513;BME280;45330;51.634;5.562;2023-02-20T04:12:21;102267.84;;;4.90;100.00
59513;BME280;45330;51.634;5.562;2023-02-20T04:14:50;102284.75;;;5.04;100.00
59513;BME280;45330;51.634;5.562;2023-02-20T04:17:21;102298.69;;;5.08;100.00
59513;BME280;45330;51.634;5.562;2023-02-20T04:19:48;102267.34;;;4.98;100.00
59513;BME280;45330;51.634;5.562;2023-02-20T04:22:19;102291.28;;;5.17;100.00
59513;BME280;45330;51.634;5.562;2023-02-20T04:24:51;102285.38;;;5.20;100.00
59513;BME280;45330;51.634;5.562;2023-02-20T04:27:19;102293.97;;;5.20;100.00
59513;BME280;45330;51.634;5.562;2023-02-20T04:29:45;102278.38;;;5.17;100.00
59513;BME280;45330;51.634;5.562;2023-02-20T04:32:10;102282.38;;;5.31;100.00
59513;BME280;45330;51.634;5.562;2023-02-20T04:34:35;102276.13;;;5.25;100.00
59513;BME280;45330;51.634;5.562;2023-02-20T04:37:21;102298.06;;;5.36;100.00
59513;BME280;45330;51.634;5.562;2023-02-20T04:39:47;102295.47;;;5.36;100.00
59513;BME280;45330;51.634;5.562;2023-02-20T04:42:12;102285.78;;;5.30;100.00
59513;BME280;45330;51.634;5.562;2023-02-20T04:44:37;102273.28;;;5.19;100.00
59513;BME280;45330;51.634;5.562;2023-02-20T04:47:06;102296.34;;;5.37;100.00
59513;BME280;45330;51.634;5.562;2023-02-20T04:49:32;102305.09;;;5.40;100.00
59513;BME280;45330;51.634;5.562;2023-02-20T04:51:57;102286.13;;;5.40;100.00
59513;BME280;45330;51.634;5.562;2023-02-20T04:54:23;102284.19;;;5.34;100.00
59513;BME280;45330;51.634;5.562;2023-02-20T04:56:49;102295.81;;;5.45;100.00
59513;BME280;45330;51.634;5.562;2023-02-20T04:59:15;102300.22;;;5.48;100.00
59513;BME280;45330;51.634;5.562;2023-02-20T05:01:40;102294.19;;;5.47;100.00
59513;BME280;45330;51.634;5.562;2023-02-20T05:04:07;102282.75;;;5.41;100.00
59513;BME280;45330;51.634;5.562;2023-02-20T05:06:32;102301.19;;;5.50;100.00
59513;BME280;45330;51.634;5.562;2023-02-20T05:08:57;102294.31;;;5.50;100.00
59513;BME280;45330;51.634;5.562;2023-02-20T05:11:23;102295.13;;;5.49;100.00
59513;BME280;45330;51.634;5.562;2023-02-20T05:13:48;102302.16;;;5.54;100.00
59513;BME280;45330;51.634;5.562;2023-02-20T05:16:14;102309.97;;;5.55;100.00
59513;BME280;45330;51.634;5.562;2023-02-20T05:18:39;102301.41;;;5.56;100.00
59513;BME280;45330;51.634;5.562;2023-02-20T05:21:05;102302.31;;;5.58;100.00
59513;BME280;45330;51.634;5.562;2023-02-20T05:23:48;102281.38;;;5.50;100.00
59513;BME280;45330;51.634;5.562;2023-02-20T05:26:19;102284.03;;;5.52;100.00
59513;BME280;45330;51.634;5.562;2023-02-20T05:28:45;102298.16;;;5.62;100.00
59513;BME280;45330;51.634;5.562;2023-02-20T05:31:11;102292.19;;;5.63;100.00
59513;BME280;45330;51.634;5.562;2023-02-20T05:33:36;102282.63;;;5.60;100.00
59513;BME280;45330;51.634;5.562;2023-02-20T05:36:02;102278.22;;;5.58;100.00
59513;BME280;45330;51.634;5.562;2023-02-20T05:38:27;102279.28;;;5.63;100.00
59513;BME280;45330;51.634;5.562;2023-02-20T05:40:53;102283.53;;;5.62;100.00
59513;BME280;45330;51.634;5.562;2023-02-20T05:43:18;102291.59;;;5.70;100.00
59513;BME280;45330;51.634;5.562;2023-02-20T05:45:43;102296.00;;;5.73;100.00
59513;BME280;45330;51.634;5.562;2023-02-20T05:48:13;102270.78;;;5.65;100.00
59513;BME280;45330;51.634;5.562;2023-02-20T05:50:38;102268.13;;;5.64;100.00
59513;BME280;45330;51.634;5.562;2023-02-20T05:53:05;102291.84;;;5.78;100.00
59513;BME280;45330;51.634;5.562;2023-02-20T05:55:30;102274.22;;;5.66;100.00
59513;BME280;45330;51.634;5.562;2023-02-20T05:57:56;102267.22;;;5.63;100.00
59513;BME280;45330;51.634;5.562;2023-02-20T06:00:22;102290.22;;;5.80;100.00
59513;BME280;45330;51.634;5.562;2023-02-20T06:02:48;102292.00;;;5.81;100.00
59513;BME280;45330;51.634;5.562;2023-02-20T06:05:14;102292.97;;;5.84;100.00
59513;BME280;45330;51.634;5.562;2023-02-20T06:07:42;102283.41;;;5.82;100.00
59513;BME280;45330;51.634;5.562;2023-02-20T06:10:08;102271.09;;;5.75;100.00
59513;BME280;45330;51.634;5.562;2023-02-20T06:12:33;102286.94;;;5.84;100.00
59513;BME280;45330;51.634;5.562;2023-02-20T06:14:58;102271.03;;;5.73;100.00
59513;BME280;45330;51.634;5.562;2023-02-20T06:17:24;102274.84;;;5.83;100.00
59513;BME280;45330;51.634;5.562;2023-02-20T06:19:49;102280.97;;;5.85;100.00
59513;BME280;45330;51.634;5.562;2023-02-20T06:22:16;102285.28;;;5.86;100.00
59513;BME280;45330;51.634;5.562;2023-02-20T06:24:45;102278.38;;;5.85;100.00
59513;BME280;45330;51.634;5.562;2023-02-20T06:27:11;102273.00;;;5.80;100.00
59513;BME280;45330;51.634;5.562;2023-02-20T06:29:37;102288.16;;;5.94;100.00
59513;BME280;45330;51.634;5.562;2023-02-20T06:32:02;102269.50;;;5.78;100.00
59513;BME280;45330;51.634;5.562;2023-02-20T06:34:27;102303.59;;;5.92;100.00
59513;BME280;45330;51.634;5.562;2023-02-20T06:36:58;102283.44;;;5.83;100.00
59513;BME280;45330;51.634;5.562;2023-02-20T06:39:23;102276.59;;;5.84;100.00
59513;BME280;45330;51.634;5.562;2023-02-20T06:41:49;102295.00;;;5.93;100.00
59513;BME280;45330;51.634;5.562;2023-02-20T06:44:14;102294.19;;;5.94;100.00
59513;BME280;45330;51.634;5.562;2023-02-20T06:46:40;102284.63;;;5.92;100.00
59513;BME280;45330;51.634;5.562;2023-02-20T06:49:05;102282.09;;;5.93;100.00
59513;BME280;45330;51.634;5.562;2023-02-20T06:51:32;102290.94;;;5.98;100.00
59513;BME280;45330;51.634;5.562;2023-02-20T06:53:59;102268.25;;;5.91;100.00
59513;BME280;45330;51.634;5.562;2023-02-20T06:56:30;102276.81;;;5.90;100.00
59513;BME280;45330;51.634;5.562;2023-02-20T06:58:56;102285.06;;;6.03;100.00
59513;BME280;45330;51.634;5.562;2023-02-20T07:01:24;102269.13;;;5.92;100.00
59513;BME280;45330;51.634;5.562;2023-02-20T07:03:51;102279.00;;;6.02;100.00
59513;BME280;45330;51.634;5.562;2023-02-20T07:06:17;102267.59;;;5.97;100.00
59513;BME280;45330;51.634;5.562;2023-02-20T07:08:43;102287.75;;;6.06;100.00
59513;BME280;45330;51.634;5.562;2023-02-20T07:11:09;102299.13;;;6.11;100.00
59513;BME280;45330;51.634;5.562;2023-02-20T07:13:34;102292.19;;;6.10;100.00
59513;BME280;45330;51.634;5.562;2023-02-20T07:16:00;102296.53;;;6.11;100.00
59513;BME280;45330;51.634;5.562;2023-02-20T07:18:25;102283.47;;;6.06;100.00
59513;BME280;45330;51.634;5.562;2023-02-20T07:20:52;102274.00;;;6.07;100.00
59513;BME280;45330;51.634;5.562;2023-02-20T07:23:18;102299.56;;;6.23;100.00
59513;BME280;45330;51.634;5.562;2023-02-20T07:25:43;102284.72;;;6.17;100.00
59513;BME280;45330;51.634;5.562;2023-02-20T07:28:09;102285.94;;;6.27;100.00
59513;BME280;45330;51.634;5.562;2023-02-20T07:30:34;102268.38;;;6.18;100.00
59513;BME280;45330;51.634;5.562;2023-02-20T07:33:00;102287.72;;;6.30;100.00
59513;BME280;45330;51.634;5.562;2023-02-20T07:35:25;102273.00;;;6.27;100.00
59513;BME280;45330;51.634;5.562;2023-02-20T07:37:50;102277.44;;;6.31;100.00
59513;BME280;45330;51.634;5.562;2023-02-20T07:40:16;102276.56;;;6.31;100.00
59513;BME280;45330;51.634;5.562;2023-02-20T07:42:41;102287.91;;;6.34;100.00
59513;BME280;45330;51.634;5.562;2023-02-20T07:45:08;102292.22;;;6.35;100.00
59513;BME280;45330;51.634;5.562;2023-02-20T07:47:34;102283.41;;;6.29;100.00
59513;BME280;45330;51.634;5.562;2023-02-20T07:49:59;102277.31;;;6.28;100.00
59513;BME280;45330;51.634;5.562;2023-02-20T07:52:25;102258.09;;;6.20;100.00
59513;BME280;45330;51.634;5.562;2023-02-20T07:54:50;102230.72;;;6.01;100.00
59513;BME280;45330;51.634;5.562;2023-02-20T07:57:16;102295.84;;;6.41;100.00
59513;BME280;45330;51.634;5.562;2023-02-20T07:59:41;102289.09;;;6.44;100.00
59513;BME280;45330;51.634;5.562;2023-02-20T08:02:07;102297.25;;;6.57;100.00
59513;BME280;45330;51.634;5.562;2023-02-20T08:04:32;102292.34;;;6.64;100.00
59513;BME280;45330;51.634;5.562;2023-02-20T08:06:57;102288.00;;;6.63;100.00
59513;BME280;45330;51.634;5.562;2023-02-20T08:09:23;102283.63;;;6.62;100.00
59513;BME280;45330;51.634;5.562;2023-02-20T08:11:48;102254.63;;;6.45;100.00
59513;BME280;45330;51.634;5.562;2023-02-20T08:14:14;102288.13;;;6.68;100.00
59513;BME280;45330;51.634;5.562;2023-02-20T08:16:39;102263.81;;;6.61;100.00
59513;BME280;45330;51.634;5.562;2023-02-20T08:19:05;102246.41;;;6.57;100.00
59513;BME280;45330;51.634;5.562;2023-02-20T08:21:30;102255.38;;;6.67;100.00
59513;BME280;45330;51.634;5.562;2023-02-20T08:23:56;102272.16;;;6.80;100.00
59513;BME280;45330;51.634;5.562;2023-02-20T08:26:21;102279.38;;;6.90;100.00
59513;BME280;45330;51.634;5.562;2023-02-20T08:28:48;102275.09;;;6.91;100.00
59513;BME280;45330;51.634;5.562;2023-02-20T08:31:14;102266.41;;;6.89;100.00
59513;BME280;45330;51.634;5.562;2023-02-20T08:33:39;102278.00;;;7.01;100.00
59513;BME280;45330;51.634;5.562;2023-02-20T08:36:05;102285.78;;;7.01;100.00
59513;BME280;45330;51.634;5.562;2023-02-20T08:38:33;102280.56;;;7.00;100.00
59513;BME280;45330;51.634;5.562;2023-02-20T08:41:02;102292.72;;;7.02;100.00
59513;BME280;45330;51.634;5.562;2023-02-20T08:43:28;102247.31;;;6.85;100.00
59513;BME280;45330;51.634;5.562;2023-02-20T08:45:54;102262.41;;;6.98;100.00
59513;BME280;45330;51.634;5.562;2023-02-20T08:48:19;102265.84;;;6.99;100.00
59513;BME280;45330;51.634;5.562;2023-02-20T08:50:45;102268.59;;;7.03;100.00
59513;BME280;45330;51.634;5.562;2023-02-20T08:53:12;102274.94;;;7.13;100.00
59513;BME280;45330;51.634;5.562;2023-02-20T08:55:37;102261.84;;;7.09;100.00
59513;BME280;45330;51.634;5.562;2023-02-20T08:58:03;102282.91;;;7.19;100.00
59513;BME280;45330;51.634;5.562;2023-02-20T09:00:28;102281.38;;;7.26;100.00
59513;BME280;45330;51.634;5.562;2023-02-20T09:02:53;102275.50;;;7.32;100.00
59513;BME280;45330;51.634;5.562;2023-02-20T09:05:19;102264.06;;;7.25;100.00
59513;BME280;45330;51.634;5.562;2023-02-20T09:07:44;102270.09;;;7.24;100.00
59513;BME280;45330;51.634;5.562;2023-02-20T09:10:10;102270.19;;;7.27;100.00
59513;BME280;45330;51.634;5.562;2023-02-20T09:12:35;102271.94;;;7.28;100.00
59513;BME280;45330;51.634;5.562;2023-02-20T09:15:01;102272.97;;;7.33;100.00
59513;BME280;45330;51.634;5.562;2023-02-20T09:17:27;102289.53;;;7.38;100.00
59513;BME280;45330;51.634;5.562;2023-02-20T09:19:53;102260.66;;;7.26;100.00
59513;BME280;45330;51.634;5.562;2023-02-20T09:22:28;102260.84;;;7.32;100.00
59513;BME280;45330;51.634;5.562;2023-02-20T09:24:53;102289.63;;;7.42;100.00
59513;BME280;45330;51.634;5.562;2023-02-20T09:27:19;102268.69;;;7.35;100.00
59513;BME280;45330;51.634;5.562;2023-02-20T09:29:45;102263.50;;;7.35;100.00
59513;BME280;45330;51.634;5.562;2023-02-20T09:32:12;102280.34;;;7.48;100.00
59513;BME280;45330;51.634;5.562;2023-02-20T09:34:38;102264.59;;;7.42;100.00
59513;BME280;45330;51.634;5.562;2023-02-20T09:37:04;102272.50;;;7.47;100.00
59513;BME280;45330;51.634;5.562;2023-02-20T09:39:30;102279.78;;;7.60;100.00
59513;BME280;45330;51.634;5.562;2023-02-20T09:49:52;102288.41;;;7.59;100.00
59513;BME280;45330;51.634;5.562;2023-02-20T09:52:22;102261.28;;;7.48;100.00
59513;BME280;45330;51.634;5.562;2023-02-20T09:54:54;102251.97;;;7.53;100.00
59513;BME280;45330;51.634;5.562;2023-02-20T09:57:26;102252.13;;;7.59;100.00
59513;BME280;45330;51.634;5.562;2023-02-20T09:59:58;102259.25;;;7.66;100.00
59513;BME280;45330;51.634;5.562;2023-02-20T10:02:43;102276.66;;;7.72;100.00
59513;BME280;45330;51.634;5.562;2023-02-20T10:05:23;102269.88;;;7.76;100.00
59513;BME280;45330;51.634;5.562;2023-02-20T10:07:50;102271.56;;;7.73;100.00
59513;BME280;45330;51.634;5.562;2023-02-20T10:10:24;102268.06;;;7.73;100.00
59513;BME280;45330;51.634;5.562;2023-02-20T10:16:06;102269.69;;;7.68;100.00
59513;BME280;45330;51.634;5.562;2023-02-20T10:18:51;102256.44;;;7.59;100.00
59513;BME280;45330;51.634;5.562;2023-02-20T10:21:28;102274.91;;;7.69;100.00
59513;BME280;45330;51.634;5.562;2023-02-20T10:26:35;102281.09;;;7.76;100.00
59513;BME280;45330;51.634;5.562;2023-02-20T10:29:18;102278.63;;;7.79;100.00
59513;BME280;45330;51.634;5.562;2023-02-20T10:32:00;102278.84;;;7.87;100.00
59513;BME280;45330;51.634;5.562;2023-02-20T10:34:57;102269.19;;;7.81;100.00
59513;BME280;45330;51.634;5.562;2023-02-20T10:37:28;102268.47;;;7.87;100.00
59513;BME280;45330;51.634;5.562;2023-02-20T10:42:51;102271.28;;;7.95;100.00
59513;BME280;45330;51.634;5.562;2023-02-20T10:45:47;102275.41;;;7.88;100.00
59513;BME280;45330;51.634;5.562;2023-02-20T10:48:10;102254.34;;;7.76;100.00
59513;BME280;45330;51.634;5.562;2023-02-20T10:50:41;102250.91;;;7.77;100.00
59513;BME280;45330;51.634;5.562;2023-02-20T10:58:11;102279.78;;;7.89;100.00
59513;BME280;45330;51.634;5.562;2023-02-20T11:01:08;102280.72;;;7.93;100.00
59513;BME280;45330;51.634;5.562;2023-02-20T11:06:20;102289.28;;;7.90;100.00
59513;BME280;45330;51.634;5.562;2023-02-20T11:08:47;102281.47;;;7.88;100.00
59513;BME280;45330;51.634;5.562;2023-02-20T11:11:39;102276.28;;;7.88;100.00
59513;BME280;45330;51.634;5.562;2023-02-20T11:14:12;102265.00;;;7.86;100.00
59513;BME280;45330;51.634;5.562;2023-02-20T11:16:43;102283.16;;;7.86;100.00
59513;BME280;45330;51.634;5.562;2023-02-20T11:19:22;102269.19;;;7.81;100.00
59513;BME280;45330;51.634;5.562;2023-02-20T11:21:50;102292.72;;;7.89;100.00
59513;BME280;45330;51.634;5.562;2023-02-20T11:26:48;102251.00;;;7.80;100.00
59513;BME280;45330;51.634;5.562;2023-02-20T11:29:18;102258.81;;;7.81;100.00
59513;BME280;45330;51.634;5.562;2023-02-20T11:31:44;102276.41;;;7.93;100.00
59513;BME280;45330;51.634;5.562;2023-02-20T11:34:21;102278.09;;;7.91;100.00
59513;BME280;45330;51.634;5.562;2023-02-20T11:36:54;102245.97;;;7.86;100.00
59513;BME280;45330;51.634;5.562;2023-02-20T11:39:29;102257.63;;;8.00;100.00
59513;BME280;45330;51.634;5.562;2023-02-20T11:42:10;102231.41;;;7.89;100.00
59513;BME280;45330;51.634;5.562;2023-02-20T11:44:36;102243.72;;;7.98;100.00
59513;BME280;45330;51.634;5.562;2023-02-20T11:47:22;102260.97;;;7.96;100.00
59513;BME280;45330;51.634;5.562;2023-02-20T11:49:49;102245.19;;;7.88;100.00
59513;BME280;45330;51.634;5.562;2023-02-20T11:52:21;102254.91;;;7.97;100.00
59513;BME280;45330;51.634;5.562;2023-02-20T11:55:07;102218.41;;;7.88;100.00
59513;BME280;45330;51.634;5.562;2023-02-20T11:57:37;102230.03;;;8.04;100.00
59513;BME280;45330;51.634;5.562;2023-02-20T12:02:53;102242.31;;;8.11;100.00
59513;BME280;45330;51.634;5.562;2023-02-20T12:05:20;102239.03;;;8.17;100.00
59513;BME280;45330;51.634;5.562;2023-02-20T12:10:28;102228.97;;;8.29;100.00
59513;BME280;45330;51.634;5.562;2023-02-20T12:12:56;102209.03;;;8.27;100.00
59513;BME280;45330;51.634;5.562;2023-02-20T12:15:24;102201.22;;;8.25;100.00
59513;BME280;45330;51.634;5.562;2023-02-20T12:18:23;102225.72;;;8.38;100.00
59513;BME280;45330;51.634;5.562;2023-02-20T12:36:34;102164.47;;;8.78;100.00
59513;BME280;45330;51.634;5.562;2023-02-20T12:42:19;102136.28;;;8.95;100.00
59513;BME280;45330;51.634;5.562;2023-02-20T12:44:59;102158.84;;;8.98;100.00
59513;BME280;45330;51.634;5.562;2023-02-20T12:47:31;102152.84;;;9.00;100.00
59513;BME280;45330;51.634;5.562;2023-02-20T12:57:59;102148.50;;;9.01;100.00
59513;BME280;45330;51.634;5.562;2023-02-20T13:00:40;102146.69;;;8.97;100.00
59513;BME280;45330;51.634;5.562;2023-02-20T13:06:02;102172.50;;;8.89;100.00
59513;BME280;45330;51.634;5.562;2023-02-20T13:08:39;102175.09;;;8.89;100.00
59513;BME280;45330;51.634;5.562;2023-02-20T13:11:12;102140.25;;;8.78;100.00
59513;BME280;45330;51.634;5.562;2023-02-20T13:17:17;102163.19;;;8.99;100.00
59513;BME280;45330;51.634;5.562;2023-02-20T13:22:39;102157.56;;;8.80;100.00
59513;BME280;45330;51.634;5.562;2023-02-20T13:30:31;102154.66;;;8.66;100.00
59513;BME280;45330;51.634;5.562;2023-02-20T13:33:21;102167.72;;;8.69;100.00
59513;BME280;45330;51.634;5.562;2023-02-20T13:35:56;102161.59;;;8.67;100.00
59513;BME280;45330;51.634;5.562;2023-02-20T13:38:24;102166.75;;;8.64;100.00
59513;BME280;45330;51.634;5.562;2023-02-20T13:54:09;102138.84;;;8.54;100.00
59513;BME280;45330;51.634;5.562;2023-02-20T13:59:07;102117.97;;;8.51;100.00
59513;BME280;45330;51.634;5.562;2023-02-20T14:04:21;102119.91;;;8.58;100.00
59513;BME280;45330;51.634;5.562;2023-02-20T14:06:51;102090.28;;;8.48;100.00
59513;BME280;45330;51.634;5.562;2023-02-20T14:09:20;102106.09;;;8.61;100.00
59513;BME280;45330;51.634;5.562;2023-02-20T14:11:49;102102.66;;;8.62;100.00
59513;BME280;45330;51.634;5.562;2023-02-20T14:14:31;102097.50;;;8.63;100.00
59513;BME280;45330;51.634;5.562;2023-02-20T14:17:18;102087.00;;;8.57;100.00
59513;BME280;45330;51.634;5.562;2023-02-20T14:19:47;102113.09;;;8.65;100.00
59513;BME280;45330;51.634;5.562;2023-02-20T14:25:25;102100.22;;;8.68;100.00
59513;BME280;45330;51.634;5.562;2023-02-20T14:28:03;102085.31;;;8.59;100.00
59513;BME280;45330;51.634;5.562;2023-02-20T14:30:28;102098.44;;;8.65;100.00
59513;BME280;45330;51.634;5.562;2023-02-20T14:32:56;102080.06;;;8.56;100.00
59513;BME280;45330;51.634;5.562;2023-02-20T14:35:35;102097.53;;;8.65;100.00
59513;BME280;45330;51.634;5.562;2023-02-20T14:38:14;102099.28;;;8.64;100.00
59513;BME280;45330;51.634;5.562;2023-02-20T14:40:43;102100.97;;;8.62;100.00
59513;BME280;45330;51.634;5.562;2023-02-20T14:43:19;102092.94;;;8.51;100.00
59513;BME280;45330;51.634;5.562;2023-02-20T14:45:47;102101.75;;;8.58;100.00
59513;BME280;45330;51.634;5.562;2023-02-20T14:48:28;102100.09;;;8.63;100.00
59513;BME280;45330;51.634;5.562;2023-02-20T14:51:17;102100.97;;;8.62;100.00
59513;BME280;45330;51.634;5.562;2023-02-20T14:53:57;102079.03;;;8.49;100.00
59513;BME280;45330;51.634;5.562;2023-02-20T14:56:23;102088.69;;;8.55;100.00
59513;BME280;45330;51.634;5.562;2023-02-20T14:58:48;102070.38;;;8.47;100.00
59513;BME280;45330;51.634;5.562;2023-02-20T15:04:01;102068.63;;;8.48;100.00
59513;BME280;45330;51.634;5.562;2023-02-20T15:06:33;102070.25;;;8.44;100.00
59513;BME280;45330;51.634;5.562;2023-02-20T15:09:00;102081.66;;;8.51;100.00
59513;BME280;45330;51.634;5.562;2023-02-20T15:11:26;102072.84;;;8.44;100.00
59513;BME280;45330;51.634;5.562;2023-02-20T15:13:53;102054.63;;;8.41;100.00
59513;BME280;45330;51.634;5.562;2023-02-20T15:16:22;102060.97;;;8.52;100.00
59513;BME280;45330;51.634;5.562;2023-02-20T15:18:49;102037.34;;;8.41;100.00
59513;BME280;45330;51.634;5.562;2023-02-20T15:21:37;102057.53;;;8.55;100.00